Dades meteomassalio
Diari Summary for Marc 3, 2018 Units:  English    Metric   Both
« Previous Day
Next Day »
Diari Semanal Mensual Anual Personalitzat
  Maxima: Minima: Mijana:
Temperatura: TemperatureC °F 3.9 °F 11 °F
Rosada: DewpointC °F -0.9 °F 3.9 °F
Humitat: Humidity % 40 % 63 %
Velocitat del vent: WindSpeedKMH mph 0.0 mph 13.6 mph
Racha vent: WindSpeedGustKMH mph - -
Vent:- - WNW
Pressio: PressurehPa in 997.2 in -
Pluja: 0.0 in    
Historical Graphs
 
 
Tabular Data for Marc 3, 2018
Time Temperature Dew Point Pressure Wind Wind Speed Wind Gust Humidity Rainfall Rate (Hourly) solar Conditions
TemperatureC °F DewpointC °F PressurehPa in Calm     Humidity % HourlyPrecipMM in SolarRadiationWatts/m^2 W/m2 Conditions
00:03 6.7 °F 4.7 °F 998.9 in Calm     87 % 0.0 in 0.0 W/m2 RA
00:08 6.7 °F 4.8 °F 998.2 in Calm     88 % 0.0 in 0.0 W/m2 CLR
00:13 6.7 °F 4.8 °F 997.9 in Calm     88 % 0.0 in 0.0 W/m2 CLR
00:18 6.7 °F 5.0 °F 997.5 in Calm     89 % 0.0 in 0.0 W/m2 CLR
00:23 6.7 °F 5.0 °F 997.2 in Calm     89 % 0.0 in 0.0 W/m2 CLR
00:28 6.7 °F 5.0 °F 997.5 in Calm     89 % 0.0 in 0.0 W/m2 CLR
00:33 6.7 °F 5.2 °F 997.5 in Calm     90 % 0.0 in 0.0 W/m2 CLR
00:38 6.7 °F 5.0 °F 997.5 in Calm     89 % 0.0 in 0.0 W/m2 CLR
00:43 6.7 °F 4.8 °F 997.5 in SW 1.9 mph 1.9 mph 88 % 1.0 in 0.0 W/m2 CLR
00:48 6.7 °F 4.8 °F 997.9 in WNW 7.4 mph 7.4 mph 88 % 0.8 in 0.0 W/m2 CLR
00:53 6.7 °F 4.8 °F 997.9 in Calm     88 % 0.5 in 0.0 W/m2 CLR
00:58 6.7 °F 4.8 °F 998.2 in WNW 1.9 mph   88 % 0.3 in 0.0 W/m2 CLR
01:03 6.1 °F 4.1 °F 997.9 in Calm     87 % 0.0 in 0.0 W/m2 CLR
01:08 6.1 °F 3.9 °F 997.9 in Calm     86 % 0.0 in 0.0 W/m2 CLR
01:13 6.1 °F 4.1 °F 997.9 in West 7.4 mph 7.4 mph 87 % 0.0 in 0.0 W/m2 CLR
01:18 6.1 °F 4.4 °F 998.2 in WNW 5.6 mph 5.6 mph 89 % 0.0 in 0.0 W/m2 CLR
01:23 6.1 °F 4.6 °F 998.2 in WNW 5.6 mph 5.6 mph 90 % 0.0 in 0.0 W/m2 CLR
01:28 6.1 °F 4.4 °F 998.2 in Calm     89 % 0.0 in 0.0 W/m2 CLR
01:33 6.1 °F 4.4 °F 998.2 in Calm     89 % 0.0 in 0.0 W/m2 CLR
01:38 6.1 °F 4.4 °F 998.2 in WNW 3.2 mph 3.2 mph 89 % 0.0 in 0.0 W/m2 CLR
01:43 6.1 °F 4.6 °F 997.9 in West 6.4 mph 6.4 mph 90 % 0.0 in 0.0 W/m2 CLR
01:48 6.1 °F 4.6 °F 998.2 in West 6.4 mph 6.4 mph 90 % 0.0 in 0.0 W/m2 CLR
01:53 6.1 °F 4.8 °F 998.2 in WNW 11.3 mph 11.3 mph 91 % 0.0 in 0.0 W/m2 CLR
01:58 5.6 °F 4.1 °F 998.2 in WNW 18.5 mph 18.5 mph 90 % 0.0 in 0.0 W/m2 CLR
02:03 5.6 °F 3.6 °F 998.2 in WNW 18.5 mph 18.5 mph 87 % 0.0 in 0.0 W/m2 CLR
02:08 5.0 °F 2.5 °F 998.2 in WNW 16.7 mph 16.7 mph 84 % 0.0 in 0.0 W/m2 CLR
02:13 5.0 °F 1.8 °F 997.9 in NW 14.8 mph 14.8 mph 80 % 0.0 in 0.0 W/m2 CLR
02:18 4.4 °F 0.6 °F 997.9 in NW 20.4 mph 20.4 mph 76 % 0.0 in 0.0 W/m2 CLR
02:23 4.4 °F 0.0 °F 997.9 in NW 24.1 mph 24.1 mph 73 % 0.0 in 0.0 W/m2 CLR
02:28 4.4 °F -0.2 °F 998.2 in NW 18.5 mph 18.5 mph 72 % 0.0 in 0.0 W/m2 CLR
02:33 5.0 °F 0.2 °F 998.2 in NW 20.4 mph 20.4 mph 71 % 0.0 in 0.0 W/m2 CLR
02:38 6.1 °F 1.1 °F 998.2 in WNW 18.5 mph 18.5 mph 70 % 0.0 in 0.0 W/m2 CLR
02:43 6.1 °F 1.1 °F 998.2 in NW 18.5 mph 18.5 mph 70 % 0.0 in 0.0 W/m2 CLR
02:48 6.7 °F 1.6 °F 998.2 in WNW 20.4 mph 20.4 mph 70 % 0.0 in 0.0 W/m2 CLR
02:53 7.8 °F 2.4 °F 998.2 in WNW 22.2 mph 22.2 mph 69 % 0.0 in 0.0 W/m2 CLR
02:58 7.8 °F 2.4 °F 997.9 in NW 24.1 mph 24.1 mph 69 % 0.0 in 0.0 W/m2 CLR
03:03 7.8 °F 2.4 °F 997.9 in WNW 20.9 mph 20.9 mph 69 % 0.0 in 0.0 W/m2 CLR
03:08 7.8 °F 2.4 °F 997.9 in NNW 22.2 mph 22.2 mph 69 % 0.0 in 0.0 W/m2 CLR
03:13 7.2 °F 1.9 °F 997.9 in NW 22.2 mph 22.2 mph 69 % 0.0 in 0.0 W/m2 CLR
03:18 7.8 °F 2.2 °F 997.9 in NNW 20.4 mph 20.4 mph 68 % 0.0 in 0.0 W/m2 CLR
03:23 7.8 °F 2.2 °F 997.9 in WNW 14.8 mph 14.8 mph 68 % 0.0 in 0.0 W/m2 CLR
03:28 7.8 °F 2.4 °F 997.9 in WNW 18.5 mph 18.5 mph 69 % 0.0 in 0.0 W/m2 CLR
03:33 8.3 °F 3.2 °F 997.5 in WNW 8.0 mph 8.0 mph 70 % 0.0 in 0.0 W/m2 CLR
03:38 8.3 °F 3.6 °F 997.5 in West 20.4 mph 20.4 mph 72 % 0.0 in 0.0 W/m2 CLR
03:43 7.8 °F 2.8 °F 997.5 in WNW 18.5 mph 18.5 mph 71 % 0.0 in 0.0 W/m2 CLR
03:48 8.3 °F 3.2 °F 997.5 in WNW 16.7 mph 16.7 mph 70 % 0.0 in 0.0 W/m2 CLR
03:53 7.8 °F 2.8 °F 997.5 in West 20.4 mph 20.4 mph 71 % 0.0 in 0.0 W/m2 CLR
03:58 7.8 °F 2.7 °F 997.5 in WNW 14.8 mph 14.8 mph 70 % 0.0 in 0.0 W/m2 CLR
04:03 6.7 °F 1.4 °F 997.5 in NW 18.5 mph 18.5 mph 69 % 0.0 in 0.0 W/m2 CLR
04:09 6.1 °F 0.7 °F 997.5 in WNW 16.7 mph 16.7 mph 68 % 0.0 in 0.0 W/m2 CLR
04:14 6.1 °F 0.8 °F 997.5 in Calm     69 % 0.0 in 0.0 W/m2 CLR
04:19 5.6 °F 0.7 °F 997.5 in Calm     71 % 0.0 in 0.0 W/m2 CLR
04:24 5.0 °F 0.6 °F 997.9 in Calm     73 % 0.0 in 0.0 W/m2 CLR
04:29 5.0 °F 0.7 °F 997.9 in Calm     74 % 0.0 in 0.0 W/m2 CLR
04:34 4.4 °F 0.4 °F 998.2 in Calm     75 % 0.0 in 0.0 W/m2 CLR
04:39 4.4 °F 0.6 °F 998.2 in Calm     76 % 0.0 in 0.0 W/m2 CLR
04:44 4.4 °F 0.9 °F 998.2 in Calm     78 % 0.0 in 0.0 W/m2 CLR
04:49 4.4 °F 0.9 °F 998.2 in Calm     78 % 0.0 in 0.0 W/m2 CLR
04:54 4.4 °F 0.8 °F 998.2 in Calm     77 % 0.0 in 0.0 W/m2 CLR
04:59 3.9 °F 0.1 °F 998.2 in NW 11.1 mph 11.1 mph 76 % 0.0 in 0.0 W/m2 CLR
05:04 3.9 °F -0.7 °F 998.2 in NNW 14.8 mph 14.8 mph 72 % 0.0 in 0.0 W/m2 CLR
05:09 3.9 °F -0.9 °F 998.2 in NNW 18.5 mph 18.5 mph 71 % 0.0 in 0.0 W/m2 CLR
05:14 3.9 °F -0.9 °F 998.5 in North 16.7 mph 16.7 mph 71 % 0.0 in 0.0 W/m2 CLR
05:19 4.4 °F -0.2 °F 998.5 in NNW 16.7 mph 16.7 mph 72 % 0.0 in 0.0 W/m2 CLR
05:24 4.4 °F -0.2 °F 998.5 in NNW 14.8 mph 14.8 mph 72 % 0.0 in 0.0 W/m2 CLR
05:29 4.4 °F 0.0 °F 998.5 in North 14.8 mph 14.8 mph 73 % 0.0 in 0.0 W/m2 CLR
05:34 4.4 °F 0.0 °F 998.9 in NNW 16.7 mph 16.7 mph 73 % 0.0 in 0.0 W/m2 CLR
05:39 5.0 °F 0.7 °F 998.9 in NW 13.0 mph 13.0 mph 74 % 0.0 in 0.0 W/m2 CLR
05:44 5.6 °F 1.1 °F 998.9 in NW 14.8 mph 14.8 mph 73 % 0.0 in 0.0 W/m2 CLR
05:49 6.1 °F 1.4 °F 998.9 in NW 16.7 mph 16.7 mph 72 % 0.0 in 0.0 W/m2 CLR
05:54 7.2 °F 2.3 °F 999.2 in NNW 14.8 mph 14.8 mph 71 % 0.0 in 0.0 W/m2 CLR
05:59 8.3 °F 3.6 °F 999.5 in NNW 11.1 mph 11.1 mph 72 % 0.0 in 0.0 W/m2 CLR
06:04 8.3 °F 3.6 °F 999.5 in NNW 11.3 mph 11.3 mph 72 % 0.0 in 0.0 W/m2 CLR
06:09 8.3 °F 3.8 °F 999.5 in NNW 16.7 mph 16.7 mph 73 % 0.0 in 0.0 W/m2 CLR
06:14 7.8 °F 3.2 °F 999.5 in NNW 20.4 mph 20.4 mph 73 % 0.0 in 0.0 W/m2 CLR
06:19 7.8 °F 3.2 °F 999.9 in North 19.3 mph 19.3 mph 73 % 0.0 in 0.0 W/m2 CLR
06:24 8.3 °F 3.8 °F 999.9 in NNW 24.1 mph 24.1 mph 73 % 0.0 in 0.0 W/m2 CLR
06:29 8.3 °F 3.9 °F 999.9 in NNW 18.5 mph 18.5 mph 74 % 0.0 in 0.0 W/m2 CLR
06:34 8.9 °F 4.5 °F 999.9 in North 14.8 mph 14.8 mph 74 % 0.0 in 0.0 W/m2 CLR
06:39 8.9 °F 4.5 °F 999.9 in NNW 18.5 mph 18.5 mph 74 % 0.0 in 0.0 W/m2 CLR
06:44 8.9 °F 4.7 °F 1000.2 in NW 18.5 mph 18.5 mph 75 % 0.0 in 0.0 W/m2 CLR
06:49 8.9 °F 4.5 °F 1000.2 in NNW 18.5 mph 18.5 mph 74 % 0.0 in 0.0 W/m2 CLR
06:54 8.9 °F 4.3 °F 1000.2 in NW 18.5 mph 18.5 mph 73 % 0.0 in 0.0 W/m2 CLR
06:59 9.4 °F 4.8 °F 1000.2 in NW 18.5 mph 18.5 mph 73 % 0.0 in 0.0 W/m2 CLR
07:04 9.4 °F 4.8 °F 1000.2 in NW 22.2 mph 22.2 mph 73 % 0.0 in 0.0 W/m2 CLR
07:09 9.4 °F 4.4 °F 1000.6 in NW 24.1 mph 24.1 mph 71 % 0.0 in 0.0 W/m2 CLR
07:14 9.4 °F 4.2 °F 1000.6 in NW 33.3 mph 33.3 mph 70 % 0.0 in 0.0 W/m2 CLR
07:19 10.0 °F 4.8 °F 1000.2 in NW 24.1 mph 24.1 mph 70 % 0.0 in 0.0 W/m2 CLR
07:24 10.0 °F 4.8 °F 1000.6 in WNW 22.2 mph 22.2 mph 70 % 0.0 in 0.0 W/m2 OVC
07:29 10.0 °F 4.8 °F 1000.6 in NW 22.2 mph 22.2 mph 70 % 0.0 in 0.0 W/m2 OVC
07:34 10.0 °F 4.8 °F 1000.6 in NW 22.5 mph 22.5 mph 70 % 0.0 in 0.0 W/m2 OVC
07:39 10.0 °F 4.8 °F 1000.9 in NW 22.5 mph 22.5 mph 70 % 0.0 in 5.0 W/m2 OVC
07:44 10.0 °F 4.8 °F 1000.9 in NW 22.2 mph 22.2 mph 70 % 0.0 in 9.0 W/m2 BKN
07:49 9.4 °F 4.1 °F 1000.9 in WNW 27.4 mph 27.4 mph 69 % 0.0 in 14.0 W/m2 BKN
07:54 10.0 °F 4.6 °F 1001.2 in WNW 30.6 mph 30.6 mph 69 % 0.0 in 16.0 W/m2 BKN
07:59 10.0 °F 4.3 °F 1001.2 in WNW 25.9 mph 25.9 mph 68 % 0.0 in 21.0 W/m2 BKN
08:04 10.0 °F 4.3 °F 1001.2 in NW 18.5 mph 18.5 mph 68 % 0.0 in 32.0 W/m2 BKN
08:09 10.0 °F 4.6 °F 1001.6 in WNW 18.5 mph 18.5 mph 69 % 0.0 in 32.0 W/m2 BKN
08:14 10.0 °F 4.3 °F 1001.6 in NW 24.1 mph 24.1 mph 68 % 0.0 in 25.0 W/m2 BKN
08:19 10.0 °F 4.6 °F 1001.9 in NW 22.2 mph 22.2 mph 69 % 0.0 in 30.0 W/m2 BKN
08:24 9.4 °F 4.1 °F 1001.9 in NW 22.2 mph 22.2 mph 69 % 0.0 in 70.0 W/m2 FEW
08:29 10.0 °F 4.3 °F 1002.3 in NW 25.9 mph 25.9 mph 68 % 0.0 in 100.0 W/m2 CLR
08:34 10.6 °F 4.7 °F 1002.3 in NNW 22.2 mph 22.2 mph 67 % 0.0 in 116.0 W/m2 CLR
08:44 10.6 °F 4.4 °F 1002.6 in NW 20.4 mph 20.4 mph 66 % 0.0 in 153.0 W/m2 CLR
08:49 10.6 °F 4.2 °F 1002.6 in NNW 22.2 mph 22.2 mph 65 % 0.0 in 156.0 W/m2 CLR
08:54 11.1 °F 5.0 °F 1002.9 in North 29.6 mph 29.6 mph 66 % 0.0 in 193.0 W/m2 CLR
08:59 11.1 °F 4.8 °F 1002.9 in NW 33.8 mph 33.8 mph 65 % 0.0 in 211.0 W/m2 CLR
09:04 11.1 °F 4.8 °F 1002.9 in NW 31.5 mph 31.5 mph 65 % 0.0 in 230.0 W/m2 CLR
09:09 11.1 °F 4.8 °F 1003.3 in NW 27.4 mph 27.4 mph 65 % 0.0 in 251.0 W/m2 CLR
09:14 11.1 °F 4.6 °F 1003.3 in NNW 24.1 mph 24.1 mph 64 % 0.0 in 267.0 W/m2 CLR
09:19 11.7 °F 4.8 °F 1002.9 in NW 24.1 mph 24.1 mph 63 % 0.0 in 281.0 W/m2 CLR
09:24 11.7 °F 5.1 °F 1003.3 in WNW 18.5 mph 18.5 mph 64 % 0.0 in 297.0 W/m2 CLR
09:29 11.7 °F 5.1 °F 1003.3 in NW 27.8 mph 27.8 mph 64 % 0.0 in 311.0 W/m2 CLR
09:34 11.7 °F 4.8 °F 1003.3 in NW 29.6 mph 29.6 mph 63 % 0.0 in 329.0 W/m2 CLR
09:39 11.7 °F 4.8 °F 1003.3 in NW 25.9 mph 25.9 mph 63 % 0.0 in 345.0 W/m2 CLR
09:44 11.7 °F 4.8 °F 1003.3 in WNW 27.4 mph 27.4 mph 63 % 0.0 in 359.0 W/m2 CLR
09:49 12.2 °F 4.9 °F 1003.3 in WNW 25.9 mph 25.9 mph 61 % 0.0 in 374.0 W/m2 CLR
09:54 12.2 °F 4.9 °F 1003.3 in NW 27.8 mph 27.8 mph 61 % 0.0 in 387.0 W/m2 CLR
09:59 12.2 °F 4.9 °F 1003.3 in NW 24.1 mph 24.1 mph 61 % 0.0 in 404.0 W/m2 CLR
10:04 12.2 °F 4.9 °F 1003.3 in NW 25.9 mph 25.9 mph 61 % 0.0 in 418.0 W/m2 CLR
10:10 12.8 °F 5.4 °F 1003.6 in WNW 22.5 mph 22.5 mph 61 % 0.0 in 431.0 W/m2 CLR
10:15 12.8 °F 5.4 °F 1003.6 in NW 27.8 mph 27.8 mph 61 % 0.0 in 446.0 W/m2 CLR
10:20 12.8 °F 5.4 °F 1003.6 in NW 24.1 mph 24.1 mph 61 % 0.0 in 459.0 W/m2 CLR
10:25 12.8 °F 5.7 °F 1003.6 in NNW 18.5 mph 18.5 mph 62 % 0.0 in 475.0 W/m2 CLR
10:30 13.3 °F 6.2 °F 1003.6 in NW 20.4 mph 20.4 mph 62 % 0.0 in 483.0 W/m2 CLR
10:35 13.9 °F 6.9 °F 1003.6 in NW 24.1 mph 24.1 mph 63 % 0.0 in 497.0 W/m2 CLR
10:40 13.9 °F 6.7 °F 1003.9 in North 22.2 mph 22.2 mph 62 % 0.0 in 520.0 W/m2 CLR
10:45 13.9 °F 6.5 °F 1003.6 in NNW 29.6 mph 29.6 mph 61 % 0.0 in 485.0 W/m2 CLR
10:50 14.4 °F 7.0 °F 1003.6 in NNW 31.5 mph 31.5 mph 61 % 0.0 in 531.0 W/m2 CLR
10:55 14.4 °F 6.8 °F 1003.9 in WNW 33.3 mph 33.3 mph 60 % 0.0 in 543.0 W/m2 CLR
11:00 14.4 °F 6.0 °F 1003.9 in NW 44.4 mph 44.4 mph 57 % 0.0 in 557.0 W/m2 CLR
11:05 15.0 °F 6.3 °F 1003.9 in WNW 25.9 mph 25.9 mph 56 % 0.0 in 570.0 W/m2 CLR
11:10 15.0 °F 6.6 °F 1003.9 in NW 27.8 mph 27.8 mph 57 % 0.0 in 584.0 W/m2 CLR
11:15 15.0 °F 7.1 °F 1003.9 in NNW 29.6 mph 29.6 mph 59 % 0.0 in 592.0 W/m2 CLR
11:20 15.0 °F 7.1 °F 1003.6 in NNW 29.0 mph 29.0 mph 59 % 0.0 in 613.0 W/m2 CLR
11:25 15.6 °F 6.6 °F 1003.6 in WNW 31.5 mph 31.5 mph 55 % 0.0 in 663.0 W/m2 CLR
11:30 16.1 °F 6.8 °F 1003.6 in West 27.8 mph 27.8 mph 54 % 0.0 in 738.0 W/m2 CLR
11:35 15.6 °F 6.3 °F 1003.9 in WNW 31.5 mph 31.5 mph 54 % 0.0 in 826.0 W/m2 CLR
11:40 15.6 °F 5.7 °F 1003.9 in WNW 20.4 mph 20.4 mph 52 % 0.0 in 722.0 W/m2 CLR
11:45 16.1 °F 7.1 °F 1003.9 in NW 25.9 mph 25.9 mph 55 % 0.0 in 311.0 W/m2 CLR
11:50 15.6 °F 6.8 °F 1004.3 in NNW 25.9 mph 25.9 mph 56 % 0.0 in 241.0 W/m2 CLR
11:55 16.1 °F 7.6 °F 1004.3 in NNW 25.9 mph 25.9 mph 57 % 0.0 in 745.0 W/m2 CLR
12:00 16.1 °F 7.8 °F 1004.3 in North 22.2 mph 22.2 mph 58 % 0.0 in 745.0 W/m2 CLR
12:05 15.6 °F 6.8 °F 1004.3 in NNW 27.8 mph 27.8 mph 56 % 0.0 in 229.0 W/m2 CLR
12:10 15.6 °F 7.1 °F 1004.3 in NW 25.9 mph 25.9 mph 57 % 0.0 in 821.0 W/m2 CLR
12:15 15.6 °F 7.1 °F 1004.3 in NW 25.9 mph 25.9 mph 57 % 0.0 in 812.0 W/m2 CLR
12:20 15.6 °F 7.3 °F 1004.3 in North 16.1 mph 16.1 mph 58 % 0.0 in 812.0 W/m2 CLR
12:25 16.1 °F 7.6 °F 1004.3 in NNW 20.4 mph 20.4 mph 57 % 0.0 in 798.0 W/m2 CLR
12:30 16.1 °F 7.3 °F 1004.3 in NW 24.1 mph 24.1 mph 56 % 0.0 in 798.0 W/m2 CLR
12:35 16.7 °F 8.3 °F 1004.3 in NW 17.7 mph 17.7 mph 58 % 0.0 in 842.0 W/m2 CLR
12:40 16.7 °F 7.8 °F 1004.3 in North 27.8 mph 27.8 mph 56 % 0.0 in 842.0 W/m2 CLR
12:45 16.7 °F 7.8 °F 1003.9 in North 19.3 mph 19.3 mph 56 % 0.0 in 773.0 W/m2 CLR
12:50 17.2 °F 7.8 °F 1003.9 in NNW 18.5 mph 18.5 mph 54 % 0.0 in 773.0 W/m2 CLR
12:55 16.1 °F 6.5 °F 1003.9 in NNW 22.2 mph 22.2 mph 53 % 0.0 in 250.0 W/m2 CLR
13:00 15.6 °F 6.6 °F 1003.9 in NNW 25.7 mph 25.7 mph 55 % 0.0 in 183.0 W/m2 CLR
13:05 15.6 °F 6.6 °F 1003.6 in North 20.4 mph 20.4 mph 55 % 0.0 in 107.0 W/m2 CLR
13:10 15.0 °F 6.3 °F 1003.6 in NNE 14.8 mph 14.8 mph 56 % 0.0 in 84.0 W/m2 CLR
13:15 16.1 °F 7.3 °F 1003.6 in NW 14.8 mph 14.8 mph 56 % 0.0 in 710.0 W/m2 CLR
13:20 16.7 °F 7.3 °F 1003.6 in North 22.2 mph 22.2 mph 54 % 0.0 in 715.0 W/m2 CLR
13:25 17.2 °F 7.3 °F 1003.6 in North 31.5 mph 31.5 mph 52 % 0.0 in 740.0 W/m2 CLR
13:31 17.8 °F 7.8 °F 1003.3 in North 22.2 mph 22.2 mph 52 % 0.0 in 666.0 W/m2 CLR
13:36 17.2 °F 7.0 °F 1003.6 in NW 24.1 mph 24.1 mph 51 % 0.0 in 731.0 W/m2 CLR
13:41 17.8 °F 7.5 °F 1003.3 in NW 24.1 mph 24.1 mph 51 % 0.0 in 722.0 W/m2 CLR
13:46 17.8 °F 7.8 °F 1003.3 in North 25.7 mph 25.7 mph 52 % 0.0 in 763.0 W/m2 CLR
13:51 17.8 °F 7.2 °F 1003.3 in NNW 29.6 mph 29.6 mph 50 % 0.0 in 729.0 W/m2 CLR
13:56 18.3 °F 7.7 °F 1002.9 in North 18.5 mph 18.5 mph 50 % 0.0 in 724.0 W/m2 CLR
14:01 17.8 °F 6.9 °F 1002.9 in NNE 37.0 mph 37.0 mph 49 % 0.0 in 823.0 W/m2 CLR
14:06 17.8 °F 7.5 °F 1002.9 in North 24.1 mph 24.1 mph 51 % 0.0 in 773.0 W/m2 CLR
14:11 17.8 °F 7.2 °F 1002.9 in NNW 31.5 mph 31.5 mph 50 % 0.0 in 693.0 W/m2 CLR
14:16 17.8 °F 7.5 °F 1002.9 in North 29.6 mph 29.6 mph 51 % 0.0 in 689.0 W/m2 CLR
14:21 18.3 °F 7.4 °F 1002.9 in NNW 33.3 mph 33.3 mph 49 % 0.0 in 708.0 W/m2 CLR
14:26 18.3 °F 7.4 °F 1002.6 in North 30.6 mph 30.6 mph 49 % 0.0 in 708.0 W/m2 CLR
14:31 17.8 °F 6.3 °F 1002.9 in North 42.6 mph 42.6 mph 47 % 0.0 in 700.0 W/m2 CLR
14:36 18.3 °F 7.1 °F 1002.6 in North 32.2 mph 32.2 mph 48 % 0.0 in 719.0 W/m2 CLR
14:41 18.3 °F 6.8 °F 1002.6 in North 27.8 mph 27.8 mph 47 % 0.0 in 737.0 W/m2 CLR
14:46 18.3 °F 5.8 °F 1002.6 in North 37.0 mph 37.0 mph 44 % 0.0 in 439.0 W/m2 CLR
14:51 18.3 °F 5.5 °F 1002.6 in NW 29.6 mph 29.6 mph 43 % 0.0 in 679.0 W/m2 CLR
14:56 18.3 °F 5.8 °F 1002.3 in NNW 31.5 mph 31.5 mph 44 % 0.0 in 642.0 W/m2 CLR
15:01 18.3 °F 5.5 °F 1002.3 in NW 25.9 mph 25.9 mph 43 % 0.0 in 554.0 W/m2 CLR
15:06 18.3 °F 5.5 °F 1002.3 in NW 20.4 mph 20.4 mph 43 % 0.0 in 619.0 W/m2 CLR
15:11 18.3 °F 5.8 °F 1002.6 in North 31.5 mph 31.5 mph 44 % 0.0 in 378.0 W/m2 CLR
15:16 17.8 °F 5.3 °F 1002.6 in North 31.5 mph 31.5 mph 44 % 0.0 in 473.0 W/m2 CLR
15:21 17.8 °F 5.3 °F 1002.6 in North 20.4 mph 20.4 mph 44 % 0.0 in 385.0 W/m2 CLR
15:26 17.8 °F 5.3 °F 1002.6 in North 20.4 mph 20.4 mph 44 % 0.0 in 380.0 W/m2 CLR
15:31 17.8 °F 5.0 °F 1002.6 in North 25.9 mph 25.9 mph 43 % 0.0 in 269.0 W/m2 CLR
15:36 17.8 °F 4.7 °F 1002.6 in NNW 25.9 mph 25.9 mph 42 % 0.0 in 323.0 W/m2 CLR
15:41 17.8 °F 4.7 °F 1002.6 in NNW 24.1 mph 24.1 mph 42 % 0.0 in 267.0 W/m2 CLR
15:46 17.8 °F 4.7 °F 1002.6 in NNW 3.7 mph 3.7 mph 42 % 0.0 in 388.0 W/m2 CLR
15:51 17.8 °F 4.7 °F 1002.6 in NNW 22.2 mph 22.2 mph 42 % 0.0 in 264.0 W/m2 CLR
15:56 17.8 °F 4.0 °F 1002.3 in NNW 14.8 mph 14.8 mph 40 % 0.0 in 258.0 W/m2 CLR
16:01 17.2 °F 3.8 °F 1002.3 in Calm     41 % 0.0 in 255.0 W/m2 CLR
16:06 17.2 °F 4.5 °F 1002.3 in NW 11.1 mph 11.1 mph 43 % 0.0 in 257.0 W/m2 CLR
16:11 17.2 °F 4.2 °F 1002.3 in North 14.8 mph 14.8 mph 42 % 0.0 in 265.0 W/m2 CLR
16:16 17.8 °F 4.3 °F 1002.3 in NNW 13.0 mph 13.0 mph 41 % 0.0 in 288.0 W/m2 CLR
16:21 17.8 °F 5.0 °F 1002.3 in North 13.0 mph 13.0 mph 43 % 0.0 in 315.0 W/m2 CLR
16:26 17.8 °F 5.3 °F 1002.3 in NNW 14.8 mph 14.8 mph 44 % 0.0 in 218.0 W/m2 CLR
16:31 17.8 °F 5.0 °F 1002.3 in NNW 18.5 mph 18.5 mph 43 % 0.0 in 258.0 W/m2 CLR
16:36 17.2 °F 4.5 °F 1002.3 in NNW 16.7 mph 16.7 mph 43 % 0.0 in 241.0 W/m2 CLR
16:41 17.2 °F 4.5 °F 1002.3 in Calm     43 % 0.0 in 179.0 W/m2 CLR
16:46 17.2 °F 4.5 °F 1002.3 in NNW 11.1 mph 11.1 mph 43 % 0.0 in 179.0 W/m2 CLR
16:51 17.2 °F 4.8 °F 1002.3 in NE 14.8 mph 14.8 mph 44 % 0.0 in 181.0 W/m2 CLR
16:56 16.7 °F 4.7 °F 1002.3 in ENE 9.3 mph 9.3 mph 45 % 0.0 in 149.0 W/m2 CLR
17:01 16.7 °F 4.7 °F 1002.6 in ENE 5.6 mph 5.6 mph 45 % 0.0 in 111.0 W/m2 CLR
17:06 16.1 °F 3.8 °F 1002.6 in Calm     44 % 0.0 in 77.0 W/m2 CLR
17:11 16.1 °F 3.8 °F 1002.3 in Calm     44 % 0.0 in 65.0 W/m2 FEW
17:16 16.1 °F 4.2 °F 1002.3 in Calm     45 % 0.0 in 69.0 W/m2 FEW
17:21 16.1 °F 4.2 °F 1002.3 in Calm     45 % 0.0 in 67.0 W/m2 FEW
17:26 16.1 °F 4.5 °F 1001.9 in Calm     46 % 0.0 in 83.0 W/m2 FEW
17:31 16.1 °F 4.5 °F 1001.9 in Calm     46 % 0.0 in 90.0 W/m2 FEW
17:36 16.1 °F 4.8 °F 1001.9 in Calm     47 % 0.0 in 84.0 W/m2 CLR
17:41 16.1 °F 4.8 °F 1002.3 in Calm     47 % 0.0 in 69.0 W/m2 FEW
17:46 15.6 °F 4.6 °F 1002.3 in Calm     48 % 0.0 in 53.0 W/m2 FEW
17:51 15.6 °F 4.3 °F 1001.9 in Calm     47 % 0.0 in 53.0 W/m2 SCT
17:56 15.6 °F 4.3 °F 1001.9 in Calm     47 % 0.0 in 54.0 W/m2 SCT
18:01 15.6 °F 4.6 °F 1002.3 in Calm     48 % 0.0 in 51.0 W/m2 SCT
18:06 15.0 °F 4.1 °F 1002.3 in Calm     48 % 0.0 in 35.0 W/m2 BKN
18:11 15.0 °F 4.1 °F 1002.3 in Calm     48 % 0.0 in 26.0 W/m2 BKN
18:16 14.4 °F 3.8 °F 1002.3 in Calm     49 % 0.0 in 25.0 W/m2 BKN
18:22 14.4 °F 3.8 °F 1002.3 in Calm     49 % 0.0 in 26.0 W/m2 BKN
18:27 14.4 °F 4.2 °F 1002.3 in Calm     50 % 0.0 in 25.0 W/m2 BKN
18:32 13.9 °F 3.6 °F 1002.3 in Calm     50 % 0.0 in 19.0 W/m2 BKN
18:37 13.9 °F 3.9 °F 1002.6 in Calm     51 % 0.0 in 14.0 W/m2 BKN
18:42 13.3 °F 3.7 °F 1002.3 in Calm     52 % 0.0 in 7.0 W/m2 BKN
18:47 13.3 °F 3.4 °F 1002.3 in South 7.4 mph 7.4 mph 51 % 0.0 in 0.0 W/m2 OVC
18:52 13.3 °F 3.7 °F 1002.3 in South 3.7 mph 3.7 mph 52 % 0.0 in 0.0 W/m2 OVC
18:57 13.3 °F 3.7 °F 1002.3 in South 3.7 mph 3.7 mph 52 % 0.0 in 0.0 W/m2 OVC
19:02 13.3 °F 3.7 °F 1002.3 in South 3.7 mph 3.7 mph 52 % 0.0 in 0.0 W/m2 CLR
19:07 12.8 °F 3.2 °F 1002.6 in SSW 6.4 mph 6.4 mph 52 % 0.0 in 0.0 W/m2 CLR
19:12 12.2 °F 2.7 °F 1002.6 in SSW 1.9 mph   52 % 0.0 in 0.0 W/m2 CLR
19:17 11.7 °F 2.1 °F 1002.6 in SSW 5.6 mph 5.6 mph 52 % 0.0 in 0.0 W/m2 CLR
19:22 11.7 °F 2.4 °F 1002.6 in South 6.4 mph 6.4 mph 53 % 0.0 in 0.0 W/m2 CLR
19:27 11.7 °F 2.1 °F 1002.6 in South 5.6 mph 5.6 mph 52 % 0.0 in 0.0 W/m2 CLR
19:32 11.7 °F 2.4 °F 1002.6 in South 11.1 mph 11.1 mph 53 % 0.0 in 0.0 W/m2 CLR
19:37 11.7 °F 2.1 °F 1002.6 in South 5.6 mph 5.6 mph 52 % 0.0 in 0.0 W/m2 CLR
19:42 11.7 °F 2.4 °F 1002.6 in South 5.6 mph 5.6 mph 53 % 0.0 in 0.0 W/m2 CLR
19:47 11.7 °F 2.4 °F 1002.6 in South 5.6 mph 5.6 mph 53 % 0.0 in 0.0 W/m2 CLR
19:52 11.1 °F 2.2 °F 1002.6 in South 5.6 mph 5.6 mph 54 % 0.0 in 0.0 W/m2 CLR
19:57 11.1 °F 2.2 °F 1002.6 in South 3.7 mph 3.7 mph 54 % 0.0 in 0.0 W/m2 CLR
20:02 10.6 °F 1.6 °F 1002.6 in Calm     54 % 0.0 in 0.0 W/m2 CLR
20:07 10.0 °F 1.6 °F 1002.3 in Calm     56 % 0.0 in 0.0 W/m2 CLR
20:12 9.4 °F 1.3 °F 1002.3 in Calm     57 % 0.0 in 0.0 W/m2 CLR
20:17 9.4 °F 1.6 °F 1002.3 in Calm     58 % 0.0 in 0.0 W/m2 CLR
20:22 8.9 °F 0.8 °F 1001.9 in Calm     57 % 0.0 in 0.0 W/m2 CLR
20:27 8.9 °F 1.3 °F 1001.9 in Calm     59 % 0.0 in 0.0 W/m2 CLR
20:32 8.3 °F 1.2 °F 1002.3 in Calm     61 % 0.0 in 0.0 W/m2 CLR
20:37 8.3 °F 1.2 °F 1001.9 in Calm     61 % 0.0 in 0.0 W/m2 CLR
20:42 8.3 °F 1.0 °F 1001.9 in Calm     60 % 0.0 in 0.0 W/m2 CLR
20:47 7.8 °F 0.5 °F 1001.9 in Calm     60 % 0.0 in 0.0 W/m2 CLR
20:52 7.8 °F 0.7 °F 1001.9 in Calm     61 % 0.0 in 0.0 W/m2 CLR
20:57 7.8 °F 0.7 °F 1001.9 in Calm     61 % 0.0 in 0.0 W/m2 CLR
21:02 7.8 °F 0.9 °F 1001.9 in Calm     62 % 0.0 in 0.0 W/m2 CLR
21:07 7.8 °F 1.2 °F 1001.9 in Calm     63 % 0.0 in 0.0 W/m2 CLR
21:12 7.8 °F 1.4 °F 1001.9 in Calm     64 % 0.0 in 0.0 W/m2 CLR
21:17 7.8 °F 1.6 °F 1002.3 in Calm     65 % 0.0 in 0.0 W/m2 CLR
21:22 7.8 °F 1.8 °F 1001.9 in Calm     66 % 0.0 in 0.0 W/m2 CLR
21:27 7.2 °F 1.5 °F 1002.3 in Calm     67 % 0.0 in 0.0 W/m2 CLR
21:32 7.2 °F 1.7 °F 1002.3 in Calm     68 % 0.0 in 0.0 W/m2 CLR
21:37 7.2 °F 1.7 °F 1002.3 in Calm     68 % 0.0 in 0.0 W/m2 CLR
21:42 7.2 °F 1.5 °F 1002.3 in Calm     67 % 0.0 in 0.0 W/m2 CLR
21:48 7.2 °F 1.7 °F 1002.3 in Calm     68 % 0.0 in 0.0 W/m2 CLR
21:53 7.2 °F 1.7 °F 1002.3 in Calm     68 % 0.0 in 0.0 W/m2 CLR
21:58 7.2 °F 1.5 °F 1002.3 in Calm     67 % 0.0 in 0.0 W/m2 CLR
22:03 7.2 °F 1.7 °F 1002.3 in Calm     68 % 0.0 in 0.0 W/m2 CLR
22:08 7.2 °F 1.9 °F 1002.3 in Calm     69 % 0.0 in 0.0 W/m2 CLR
22:13 7.2 °F 1.7 °F 1001.9 in Calm     68 % 0.0 in 0.0 W/m2 CLR
22:18 7.2 °F 1.5 °F 1001.9 in Calm     67 % 0.0 in 0.0 W/m2 CLR
22:23 7.2 °F 1.9 °F 1001.9 in Calm     69 % 0.0 in 0.0 W/m2 CLR
22:28 7.2 °F 2.1 °F 1001.9 in Calm     70 % 0.0 in 0.0 W/m2 CLR
22:33 7.2 °F 2.3 °F 1001.9 in Calm     71 % 0.0 in 0.0 W/m2 CLR
22:38 7.2 °F 2.1 °F 1001.6 in Calm     70 % 0.0 in 0.0 W/m2 CLR
22:43 7.2 °F 2.5 °F 1001.6 in Calm     72 % 0.0 in 0.0 W/m2 CLR
22:48 7.2 °F 2.5 °F 1001.6 in Calm     72 % 0.0 in 0.0 W/m2 CLR
22:53 7.2 °F 2.7 °F 1001.6 in Calm     73 % 0.0 in 0.0 W/m2 CLR
22:58 7.2 °F 3.1 °F 1001.2 in Calm     75 % 0.0 in 0.0 W/m2 CLR
23:03 7.2 °F 3.3 °F 1001.2 in Calm     76 % 0.0 in 0.0 W/m2 CLR
23:08 7.2 °F 3.3 °F 1001.2 in Calm     76 % 0.0 in 0.0 W/m2 CLR
23:13 7.2 °F 3.3 °F 1001.2 in Calm     76 % 0.0 in 0.0 W/m2 CLR
23:18 7.2 °F 3.3 °F 1001.2 in Calm     76 % 0.0 in 0.0 W/m2 CLR
23:23 7.2 °F 3.4 °F 1001.2 in Calm     77 % 0.0 in 0.0 W/m2 CLR
23:28 7.2 °F 3.4 °F 1001.2 in Calm     77 % 0.0 in 0.0 W/m2 CLR
23:33 6.7 °F 3.1 °F 1001.2 in Calm     78 % 0.0 in 0.0 W/m2 CLR
23:38 7.2 °F 3.7 °F 1001.2 in Calm     78 % 0.0 in 0.0 W/m2 CLR
23:43 7.2 °F 3.4 °F 1001.2 in Calm     77 % 0.0 in 0.0 W/m2 CLR
23:48 7.2 °F 3.4 °F 1001.2 in Calm     77 % 0.0 in 0.0 W/m2 CLR
23:53 7.8 °F 4.0 °F 1001.2 in Calm     77 % 0.0 in 0.0 W/m2 CLR
23:58 7.2 °F 3.4 °F 1001.2 in Calm     77 % 0.0 in 0.0 W/m2 CLR
Lo Temps de Massalio
Compliments of Weather Underground - 1.25 mb